Kezdőlap
METAR-TAF:

METAR-TAF

Repülőterek :

Platteville, Wisconsin, Amerikai Egyesült Államok

földrajzi szélesség: 42-41-22N, földrajzi hosszúság: 090-26-40W, magasság: 312 m

Jelenlegi meteorológiai megfigyelések

A jelentés 43 perccel ezelõtt készült, 17:55 UTC
Északi szél 7 kt
Hőmérséklet 17°C
Páratartalom 94%
Légköri nyomás 1010 hPa
Látótávolság: 11.3 km
Borult 1400 lábon

METAR: KPVB 201755Z AUTO 35007KT 7SM OVC014 17/16 A2983 RMK AO1 P0001 60021 T01690160 10177 20161

Idő: 13:38 (18:38 UTC)


TAF: hiányzik

Meteorológiai megfigyelések és előrejelzések több, mint 4000 repülőtéren (METAR és TAF jelentéseket).

A térképen piros és sárga pontok jelzik az elérhető meteorológiai állomásokat.

Mozgassa az egeret a pont fölött, hogy megjelenjen az állomás neve.

Azután kattintson az időjárási megfigyelések és előrejelzések megtekintéséhez.

A térkép megváltoztatása: kattintson a fekete keresztel jelölt zöld gombra ráközelítéshez, a vonallal jelölt zöld gombra távolításhoz, vagy a zöld nyilakra a szomszédos térképek eléréséhez.


METAR-TAF: